sensor_id;sensor_type;location;lat;lon;timestamp;P1;durP1;ratioP1;P2;durP2;ratioP2
68196;SDS011;55019;49.382;11.358;2023-04-08T00:01:08;9.73;;;5.25;;
68196;SDS011;55019;49.382;11.358;2023-04-08T00:03:35;10.95;;;5.63;;
68196;SDS011;55019;49.382;11.358;2023-04-08T00:06:00;8.20;;;4.57;;
68196;SDS011;55019;49.382;11.358;2023-04-08T00:08:27;7.50;;;4.60;;
68196;SDS011;55019;49.382;11.358;2023-04-08T00:10:53;7.07;;;3.92;;
68196;SDS011;55019;49.382;11.358;2023-04-08T00:13:19;7.63;;;4.68;;
68196;SDS011;55019;49.382;11.358;2023-04-08T00:15:45;8.60;;;4.78;;
68196;SDS011;55019;49.382;11.358;2023-04-08T00:18:12;7.72;;;4.22;;
68196;SDS011;55019;49.382;11.358;2023-04-08T00:20:39;7.25;;;4.07;;
68196;SDS011;55019;49.382;11.358;2023-04-08T00:23:07;5.57;;;3.95;;
68196;SDS011;55019;49.382;11.358;2023-04-08T00:25:33;6.88;;;4.18;;
68196;SDS011;55019;49.382;11.358;2023-04-08T00:27:58;6.75;;;4.63;;
68196;SDS011;55019;49.382;11.358;2023-04-08T00:30:24;8.30;;;4.50;;
68196;SDS011;55019;49.382;11.358;2023-04-08T00:32:51;6.57;;;4.00;;
68196;SDS011;55019;49.382;11.358;2023-04-08T00:35:17;8.38;;;4.53;;
68196;SDS011;55019;49.382;11.358;2023-04-08T00:37:43;6.97;;;4.00;;
68196;SDS011;55019;49.382;11.358;2023-04-08T00:40:08;7.25;;;3.75;;
68196;SDS011;55019;49.382;11.358;2023-04-08T00:42:34;5.60;;;3.63;;
68196;SDS011;55019;49.382;11.358;2023-04-08T00:45:00;7.80;;;3.90;;
68196;SDS011;55019;49.382;11.358;2023-04-08T00:47:25;6.90;;;3.78;;
68196;SDS011;55019;49.382;11.358;2023-04-08T00:49:51;6.03;;;4.25;;
68196;SDS011;55019;49.382;11.358;2023-04-08T00:52:17;7.70;;;4.38;;
68196;SDS011;55019;49.382;11.358;2023-04-08T00:54:43;6.40;;;4.50;;
68196;SDS011;55019;49.382;11.358;2023-04-08T00:57:08;9.30;;;4.75;;
68196;SDS011;55019;49.382;11.358;2023-04-08T00:59:34;9.82;;;5.07;;
68196;SDS011;55019;49.382;11.358;2023-04-08T01:05:01;7.32;;;5.22;;
68196;SDS011;55019;49.382;11.358;2023-04-08T01:07:37;8.55;;;4.97;;
68196;SDS011;55019;49.382;11.358;2023-04-08T01:12:41;8.38;;;5.15;;
68196;SDS011;55019;49.382;11.358;2023-04-08T01:15:12;8.65;;;5.05;;
68196;SDS011;55019;49.382;11.358;2023-04-08T01:17:38;6.80;;;4.30;;
68196;SDS011;55019;49.382;11.358;2023-04-08T01:20:06;8.23;;;5.50;;
68196;SDS011;55019;49.382;11.358;2023-04-08T01:28:08;10.55;;;5.05;;
68196;SDS011;55019;49.382;11.358;2023-04-08T01:30:37;8.90;;;5.00;;
68196;SDS011;55019;49.382;11.358;2023-04-08T01:33:05;7.80;;;5.07;;
68196;SDS011;55019;49.382;11.358;2023-04-08T01:35:31;9.25;;;4.90;;
68196;SDS011;55019;49.382;11.358;2023-04-08T01:37:58;7.47;;;5.20;;
68196;SDS011;55019;49.382;11.358;2023-04-08T01:40:26;8.88;;;5.18;;
68196;SDS011;55019;49.382;11.358;2023-04-08T01:42:53;8.15;;;4.90;;
68196;SDS011;55019;49.382;11.358;2023-04-08T01:45:21;7.57;;;4.25;;
68196;SDS011;55019;49.382;11.358;2023-04-08T01:47:48;9.13;;;4.80;;
68196;SDS011;55019;49.382;11.358;2023-04-08T01:50:15;7.35;;;4.78;;
68196;SDS011;55019;49.382;11.358;2023-04-08T01:52:45;8.30;;;4.70;;
68196;SDS011;55019;49.382;11.358;2023-04-08T01:55:13;6.97;;;4.43;;
68196;SDS011;55019;49.382;11.358;2023-04-08T01:57:40;7.38;;;4.32;;
68196;SDS011;55019;49.382;11.358;2023-04-08T02:00:10;7.72;;;4.60;;
68196;SDS011;55019;49.382;11.358;2023-04-08T02:02:46;5.95;;;4.32;;
68196;SDS011;55019;49.382;11.358;2023-04-08T02:05:13;6.40;;;4.10;;
68196;SDS011;55019;49.382;11.358;2023-04-08T02:07:40;5.97;;;4.20;;
68196;SDS011;55019;49.382;11.358;2023-04-08T02:10:05;6.75;;;4.65;;
68196;SDS011;55019;49.382;11.358;2023-04-08T02:12:32;7.22;;;4.25;;
68196;SDS011;55019;49.382;11.358;2023-04-08T02:14:58;7.15;;;4.72;;
68196;SDS011;55019;49.382;11.358;2023-04-08T02:25:27;6.45;;;4.25;;
68196;SDS011;55019;49.382;11.358;2023-04-08T02:27:54;7.03;;;4.72;;
68196;SDS011;55019;49.382;11.358;2023-04-08T02:30:21;7.00;;;4.47;;
68196;SDS011;55019;49.382;11.358;2023-04-08T02:32:50;5.57;;;4.38;;
68196;SDS011;55019;49.382;11.358;2023-04-08T02:35:18;6.85;;;4.30;;
68196;SDS011;55019;49.382;11.358;2023-04-08T02:37:45;6.43;;;4.20;;
68196;SDS011;55019;49.382;11.358;2023-04-08T02:42:49;8.38;;;4.25;;
68196;SDS011;55019;49.382;11.358;2023-04-08T02:45:15;6.55;;;4.10;;
68196;SDS011;55019;49.382;11.358;2023-04-08T02:47:41;6.35;;;4.32;;
68196;SDS011;55019;49.382;11.358;2023-04-08T02:50:06;6.22;;;4.05;;
68196;SDS011;55019;49.382;11.358;2023-04-08T02:52:32;7.15;;;4.25;;
68196;SDS011;55019;49.382;11.358;2023-04-08T02:54:58;6.32;;;4.85;;
68196;SDS011;55019;49.382;11.358;2023-04-08T02:57:24;7.35;;;4.28;;
68196;SDS011;55019;49.382;11.358;2023-04-08T02:59:49;7.57;;;4.32;;
68196;SDS011;55019;49.382;11.358;2023-04-08T03:02:15;7.53;;;4.70;;
68196;SDS011;55019;49.382;11.358;2023-04-08T03:04:41;7.93;;;4.47;;
68196;SDS011;55019;49.382;11.358;2023-04-08T03:07:07;6.05;;;4.20;;
68196;SDS011;55019;49.382;11.358;2023-04-08T03:09:33;7.03;;;4.50;;
68196;SDS011;55019;49.382;11.358;2023-04-08T03:11:58;6.05;;;4.65;;
68196;SDS011;55019;49.382;11.358;2023-04-08T03:14:24;6.90;;;4.40;;
68196;SDS011;55019;49.382;11.358;2023-04-08T03:16:50;7.75;;;4.43;;
68196;SDS011;55019;49.382;11.358;2023-04-08T03:19:15;10.00;;;5.15;;
68196;SDS011;55019;49.382;11.358;2023-04-08T03:21:41;7.10;;;4.72;;
68196;SDS011;55019;49.382;11.358;2023-04-08T03:24:07;6.68;;;4.75;;
68196;SDS011;55019;49.382;11.358;2023-04-08T03:26:32;7.07;;;4.40;;
68196;SDS011;55019;49.382;11.358;2023-04-08T03:28:58;7.40;;;4.55;;
68196;SDS011;55019;49.382;11.358;2023-04-08T03:31:24;7.82;;;4.75;;
68196;SDS011;55019;49.382;11.358;2023-04-08T03:33:50;7.13;;;4.70;;
68196;SDS011;55019;49.382;11.358;2023-04-08T03:36:16;6.88;;;4.85;;
68196;SDS011;55019;49.382;11.358;2023-04-08T03:38:41;6.80;;;3.97;;
68196;SDS011;55019;49.382;11.358;2023-04-08T03:41:08;6.95;;;4.72;;
68196;SDS011;55019;49.382;11.358;2023-04-08T03:43:34;7.65;;;4.72;;
68196;SDS011;55019;49.382;11.358;2023-04-08T03:46:00;8.10;;;5.07;;
68196;SDS011;55019;49.382;11.358;2023-04-08T03:48:26;7.03;;;4.57;;
68196;SDS011;55019;49.382;11.358;2023-04-08T03:50:52;7.07;;;4.47;;
68196;SDS011;55019;49.382;11.358;2023-04-08T03:53:18;7.22;;;4.63;;
68196;SDS011;55019;49.382;11.358;2023-04-08T03:55:44;7.78;;;5.10;;
68196;SDS011;55019;49.382;11.358;2023-04-08T03:58:10;7.80;;;4.82;;
68196;SDS011;55019;49.382;11.358;2023-04-08T04:00:35;9.82;;;5.57;;
68196;SDS011;55019;49.382;11.358;2023-04-08T04:03:01;6.38;;;5.07;;
68196;SDS011;55019;49.382;11.358;2023-04-08T04:05:27;8.77;;;5.07;;
68196;SDS011;55019;49.382;11.358;2023-04-08T04:07:53;8.40;;;5.45;;
68196;SDS011;55019;49.382;11.358;2023-04-08T04:10:19;6.72;;;4.63;;
68196;SDS011;55019;49.382;11.358;2023-04-08T04:12:45;8.57;;;4.70;;
68196;SDS011;55019;49.382;11.358;2023-04-08T04:15:11;6.47;;;4.57;;
68196;SDS011;55019;49.382;11.358;2023-04-08T04:17:37;6.97;;;4.38;;
68196;SDS011;55019;49.382;11.358;2023-04-08T04:20:04;7.25;;;4.57;;
68196;SDS011;55019;49.382;11.358;2023-04-08T04:22:30;6.15;;;5.03;;
68196;SDS011;55019;49.382;11.358;2023-04-08T04:24:56;6.68;;;4.15;;
68196;SDS011;55019;49.382;11.358;2023-04-08T04:27:22;6.65;;;4.38;;
68196;SDS011;55019;49.382;11.358;2023-04-08T04:29:47;7.95;;;4.78;;
68196;SDS011;55019;49.382;11.358;2023-04-08T04:32:13;7.20;;;4.63;;
68196;SDS011;55019;49.382;11.358;2023-04-08T04:34:38;6.47;;;4.28;;
68196;SDS011;55019;49.382;11.358;2023-04-08T04:37:04;7.18;;;4.07;;
68196;SDS011;55019;49.382;11.358;2023-04-08T04:39:30;7.97;;;4.00;;
68196;SDS011;55019;49.382;11.358;2023-04-08T04:41:56;8.40;;;4.43;;
68196;SDS011;55019;49.382;11.358;2023-04-08T04:44:22;7.47;;;4.72;;
68196;SDS011;55019;49.382;11.358;2023-04-08T04:46:48;8.23;;;4.32;;
68196;SDS011;55019;49.382;11.358;2023-04-08T04:49:14;6.95;;;4.25;;
68196;SDS011;55019;49.382;11.358;2023-04-08T04:51:39;6.63;;;4.20;;
68196;SDS011;55019;49.382;11.358;2023-04-08T04:54:05;6.15;;;4.00;;
68196;SDS011;55019;49.382;11.358;2023-04-08T04:56:31;6.40;;;4.25;;
68196;SDS011;55019;49.382;11.358;2023-04-08T04:58:56;6.80;;;4.65;;
68196;SDS011;55019;49.382;11.358;2023-04-08T05:01:22;7.57;;;4.88;;
68196;SDS011;55019;49.382;11.358;2023-04-08T05:03:48;7.50;;;4.30;;
68196;SDS011;55019;49.382;11.358;2023-04-08T05:06:14;7.20;;;4.30;;
68196;SDS011;55019;49.382;11.358;2023-04-08T05:08:39;6.40;;;4.40;;
68196;SDS011;55019;49.382;11.358;2023-04-08T05:11:08;7.78;;;4.55;;
68196;SDS011;55019;49.382;11.358;2023-04-08T05:13:35;6.72;;;4.40;;
68196;SDS011;55019;49.382;11.358;2023-04-08T05:16:01;7.25;;;4.43;;
68196;SDS011;55019;49.382;11.358;2023-04-08T05:18:26;7.03;;;4.72;;
68196;SDS011;55019;49.382;11.358;2023-04-08T05:20:52;7.88;;;4.13;;
68196;SDS011;55019;49.382;11.358;2023-04-08T05:23:18;8.70;;;4.65;;
68196;SDS011;55019;49.382;11.358;2023-04-08T05:25:43;6.18;;;4.07;;
68196;SDS011;55019;49.382;11.358;2023-04-08T05:28:09;7.78;;;4.85;;
68196;SDS011;55019;49.382;11.358;2023-04-08T05:30:35;7.38;;;4.07;;
68196;SDS011;55019;49.382;11.358;2023-04-08T05:33:00;8.30;;;5.10;;
68196;SDS011;55019;49.382;11.358;2023-04-08T05:35:26;6.35;;;4.20;;
68196;SDS011;55019;49.382;11.358;2023-04-08T05:37:53;6.82;;;4.60;;
68196;SDS011;55019;49.382;11.358;2023-04-08T05:40:18;8.13;;;4.95;;
68196;SDS011;55019;49.382;11.358;2023-04-08T05:42:44;6.75;;;4.10;;
68196;SDS011;55019;49.382;11.358;2023-04-08T05:45:10;6.38;;;4.93;;
68196;SDS011;55019;49.382;11.358;2023-04-08T05:47:36;7.95;;;4.80;;
68196;SDS011;55019;49.382;11.358;2023-04-08T05:50:01;8.65;;;4.70;;
68196;SDS011;55019;49.382;11.358;2023-04-08T05:52:27;6.85;;;4.70;;
68196;SDS011;55019;49.382;11.358;2023-04-08T05:54:53;9.07;;;5.45;;
68196;SDS011;55019;49.382;11.358;2023-04-08T05:57:18;9.38;;;5.90;;
68196;SDS011;55019;49.382;11.358;2023-04-08T05:59:44;8.70;;;4.82;;
68196;SDS011;55019;49.382;11.358;2023-04-08T06:02:10;8.85;;;4.95;;
68196;SDS011;55019;49.382;11.358;2023-04-08T06:04:35;8.30;;;5.07;;
68196;SDS011;55019;49.382;11.358;2023-04-08T06:07:01;8.13;;;4.57;;
68196;SDS011;55019;49.382;11.358;2023-04-08T06:09:28;11.50;;;5.57;;
68196;SDS011;55019;49.382;11.358;2023-04-08T06:11:53;7.82;;;4.60;;
68196;SDS011;55019;49.382;11.358;2023-04-08T06:14:21;8.35;;;4.70;;
68196;SDS011;55019;49.382;11.358;2023-04-08T06:16:46;6.22;;;4.60;;
68196;SDS011;55019;49.382;11.358;2023-04-08T06:19:12;7.43;;;4.32;;
68196;SDS011;55019;49.382;11.358;2023-04-08T06:21:37;7.20;;;4.55;;
68196;SDS011;55019;49.382;11.358;2023-04-08T06:24:03;6.20;;;3.60;;
68196;SDS011;55019;49.382;11.358;2023-04-08T06:26:29;6.07;;;4.15;;
68196;SDS011;55019;49.382;11.358;2023-04-08T06:28:55;7.35;;;4.65;;
68196;SDS011;55019;49.382;11.358;2023-04-08T06:31:21;6.90;;;4.30;;
68196;SDS011;55019;49.382;11.358;2023-04-08T06:33:46;8.48;;;4.05;;
68196;SDS011;55019;49.382;11.358;2023-04-08T06:36:12;8.68;;;4.18;;
68196;SDS011;55019;49.382;11.358;2023-04-08T06:38:38;6.88;;;4.13;;
68196;SDS011;55019;49.382;11.358;2023-04-08T06:41:06;7.85;;;5.00;;
68196;SDS011;55019;49.382;11.358;2023-04-08T06:43:33;6.50;;;3.72;;
68196;SDS011;55019;49.382;11.358;2023-04-08T06:48:26;6.60;;;4.15;;
68196;SDS011;55019;49.382;11.358;2023-04-08T06:50:57;8.77;;;5.05;;
68196;SDS011;55019;49.382;11.358;2023-04-08T06:53:24;6.53;;;4.60;;
68196;SDS011;55019;49.382;11.358;2023-04-08T06:55:50;6.15;;;3.90;;
68196;SDS011;55019;49.382;11.358;2023-04-08T06:58:16;5.25;;;3.85;;
68196;SDS011;55019;49.382;11.358;2023-04-08T07:00:42;5.40;;;4.43;;
68196;SDS011;55019;49.382;11.358;2023-04-08T07:03:08;6.15;;;3.80;;
68196;SDS011;55019;49.382;11.358;2023-04-08T07:05:35;8.85;;;4.60;;
68196;SDS011;55019;49.382;11.358;2023-04-08T07:08:01;6.25;;;4.35;;
68196;SDS011;55019;49.382;11.358;2023-04-08T07:10:27;6.88;;;3.83;;
68196;SDS011;55019;49.382;11.358;2023-04-08T07:12:53;7.45;;;4.10;;
68196;SDS011;55019;49.382;11.358;2023-04-08T07:15:19;6.32;;;4.00;;
68196;SDS011;55019;49.382;11.358;2023-04-08T07:17:44;6.63;;;4.05;;
68196;SDS011;55019;49.382;11.358;2023-04-08T07:20:12;6.80;;;4.10;;
68196;SDS011;55019;49.382;11.358;2023-04-08T07:22:40;5.82;;;3.58;;
68196;SDS011;55019;49.382;11.358;2023-04-08T07:25:06;6.85;;;4.40;;
68196;SDS011;55019;49.382;11.358;2023-04-08T07:27:32;6.22;;;4.18;;
68196;SDS011;55019;49.382;11.358;2023-04-08T07:29:58;4.93;;;3.65;;
68196;SDS011;55019;49.382;11.358;2023-04-08T07:32:25;7.10;;;4.03;;
68196;SDS011;55019;49.382;11.358;2023-04-08T07:34:51;6.18;;;3.47;;
68196;SDS011;55019;49.382;11.358;2023-04-08T07:37:17;6.65;;;4.00;;
68196;SDS011;55019;49.382;11.358;2023-04-08T07:39:43;5.07;;;3.60;;
68196;SDS011;55019;49.382;11.358;2023-04-08T07:42:09;5.80;;;3.47;;
68196;SDS011;55019;49.382;11.358;2023-04-08T07:44:34;5.88;;;3.75;;
68196;SDS011;55019;49.382;11.358;2023-04-08T07:47:00;6.25;;;3.58;;
68196;SDS011;55019;49.382;11.358;2023-04-08T07:49:26;7.20;;;4.47;;
68196;SDS011;55019;49.382;11.358;2023-04-08T07:51:51;6.72;;;3.58;;
68196;SDS011;55019;49.382;11.358;2023-04-08T07:54:17;4.88;;;3.40;;
68196;SDS011;55019;49.382;11.358;2023-04-08T07:56:43;6.78;;;3.97;;
68196;SDS011;55019;49.382;11.358;2023-04-08T07:59:12;5.13;;;3.30;;
68196;SDS011;55019;49.382;11.358;2023-04-08T08:01:38;5.13;;;3.75;;
68196;SDS011;55019;49.382;11.358;2023-04-08T08:04:03;5.95;;;3.30;;
68196;SDS011;55019;49.382;11.358;2023-04-08T08:06:29;7.95;;;4.15;;
68196;SDS011;55019;49.382;11.358;2023-04-08T08:08:58;5.20;;;3.55;;
68196;SDS011;55019;49.382;11.358;2023-04-08T08:11:25;5.85;;;3.38;;
68196;SDS011;55019;49.382;11.358;2023-04-08T08:13:52;5.72;;;3.85;;
68196;SDS011;55019;49.382;11.358;2023-04-08T08:16:19;6.95;;;3.90;;
68196;SDS011;55019;49.382;11.358;2023-04-08T08:18:45;6.05;;;3.17;;
68196;SDS011;55019;49.382;11.358;2023-04-08T08:21:10;6.45;;;3.58;;
68196;SDS011;55019;49.382;11.358;2023-04-08T08:23:36;6.72;;;3.70;;
68196;SDS011;55019;49.382;11.358;2023-04-08T08:26:03;6.80;;;3.90;;
68196;SDS011;55019;49.382;11.358;2023-04-08T08:28:30;6.93;;;3.63;;
68196;SDS011;55019;49.382;11.358;2023-04-08T08:30:57;5.93;;;3.28;;
68196;SDS011;55019;49.382;11.358;2023-04-08T08:33:24;6.85;;;3.72;;
68196;SDS011;55019;49.382;11.358;2023-04-08T08:35:50;4.82;;;3.40;;
68196;SDS011;55019;49.382;11.358;2023-04-08T08:38:16;4.78;;;3.45;;
68196;SDS011;55019;49.382;11.358;2023-04-08T08:40:42;4.93;;;3.22;;
68196;SDS011;55019;49.382;11.358;2023-04-08T08:43:09;4.20;;;3.05;;
68196;SDS011;55019;49.382;11.358;2023-04-08T08:45:39;6.70;;;3.60;;
68196;SDS011;55019;49.382;11.358;2023-04-08T08:48:06;4.75;;;3.47;;
68196;SDS011;55019;49.382;11.358;2023-04-08T08:50:33;5.40;;;3.58;;
68196;SDS011;55019;49.382;11.358;2023-04-08T08:52:59;5.93;;;3.83;;
68196;SDS011;55019;49.382;11.358;2023-04-08T08:55:28;6.43;;;4.18;;
68196;SDS011;55019;49.382;11.358;2023-04-08T08:57:56;5.00;;;2.83;;
68196;SDS011;55019;49.382;11.358;2023-04-08T09:00:39;6.57;;;3.35;;
68196;SDS011;55019;49.382;11.358;2023-04-08T09:03:19;24.98;;;10.23;;
68196;SDS011;55019;49.382;11.358;2023-04-08T09:08:35;6.47;;;3.47;;
68196;SDS011;55019;49.382;11.358;2023-04-08T09:11:11;7.68;;;4.93;;
68196;SDS011;55019;49.382;11.358;2023-04-08T09:13:39;5.50;;;3.17;;
68196;SDS011;55019;49.382;11.358;2023-04-08T09:16:06;4.85;;;3.28;;
68196;SDS011;55019;49.382;11.358;2023-04-08T09:18:34;5.90;;;3.53;;
68196;SDS011;55019;49.382;11.358;2023-04-08T09:21:01;6.68;;;3.80;;
68196;SDS011;55019;49.382;11.358;2023-04-08T09:23:47;6.28;;;3.38;;
68196;SDS011;55019;49.382;11.358;2023-04-08T09:26:15;4.50;;;3.30;;
68196;SDS011;55019;49.382;11.358;2023-04-08T09:28:43;4.85;;;3.05;;
68196;SDS011;55019;49.382;11.358;2023-04-08T09:31:19;4.90;;;3.42;;
68196;SDS011;55019;49.382;11.358;2023-04-08T09:33:47;4.43;;;2.85;;
68196;SDS011;55019;49.382;11.358;2023-04-08T09:38:41;4.00;;;3.00;;
68196;SDS011;55019;49.382;11.358;2023-04-08T09:41:07;4.07;;;2.95;;
68196;SDS011;55019;49.382;11.358;2023-04-08T09:43:41;4.32;;;3.05;;
68196;SDS011;55019;49.382;11.358;2023-04-08T09:46:14;4.80;;;3.70;;
68196;SDS011;55019;49.382;11.358;2023-04-08T09:48:49;4.32;;;2.95;;
68196;SDS011;55019;49.382;11.358;2023-04-08T09:51:20;5.18;;;3.28;;
68196;SDS011;55019;49.382;11.358;2023-04-08T09:53:52;3.60;;;3.05;;
68196;SDS011;55019;49.382;11.358;2023-04-08T09:56:23;6.47;;;3.40;;
68196;SDS011;55019;49.382;11.358;2023-04-08T09:58:58;4.43;;;3.33;;
68196;SDS011;55019;49.382;11.358;2023-04-08T10:01:31;4.95;;;3.10;;
68196;SDS011;55019;49.382;11.358;2023-04-08T10:04:04;4.53;;;3.15;;
68196;SDS011;55019;49.382;11.358;2023-04-08T10:06:33;5.10;;;3.15;;
68196;SDS011;55019;49.382;11.358;2023-04-08T10:09:01;4.90;;;3.03;;
68196;SDS011;55019;49.382;11.358;2023-04-08T10:11:28;4.65;;;2.72;;
68196;SDS011;55019;49.382;11.358;2023-04-08T10:13:54;3.20;;;2.40;;
68196;SDS011;55019;49.382;11.358;2023-04-08T10:18:49;4.88;;;3.22;;
68196;SDS011;55019;49.382;11.358;2023-04-08T10:21:35;4.38;;;2.90;;
68196;SDS011;55019;49.382;11.358;2023-04-08T10:24:12;4.15;;;2.92;;
68196;SDS011;55019;49.382;11.358;2023-04-08T10:26:42;6.28;;;3.80;;
68196;SDS011;55019;49.382;11.358;2023-04-08T10:31:44;4.82;;;2.80;;
68196;SDS011;55019;49.382;11.358;2023-04-08T10:34:17;3.63;;;3.00;;
68196;SDS011;55019;49.382;11.358;2023-04-08T10:36:51;4.18;;;2.83;;
68196;SDS011;55019;49.382;11.358;2023-04-08T10:39:17;4.70;;;3.13;;
68196;SDS011;55019;49.382;11.358;2023-04-08T10:44:17;4.25;;;3.03;;
68196;SDS011;55019;49.382;11.358;2023-04-08T10:46:44;4.93;;;3.30;;
68196;SDS011;55019;49.382;11.358;2023-04-08T10:49:11;5.10;;;3.03;;
68196;SDS011;55019;49.382;11.358;2023-04-08T10:51:37;3.63;;;2.75;;
68196;SDS011;55019;49.382;11.358;2023-04-08T10:54:04;5.43;;;2.90;;
68196;SDS011;55019;49.382;11.358;2023-04-08T10:56:31;5.47;;;3.30;;
68196;SDS011;55019;49.382;11.358;2023-04-08T10:58:57;5.10;;;3.30;;
68196;SDS011;55019;49.382;11.358;2023-04-08T11:01:24;4.57;;;2.92;;
68196;SDS011;55019;49.382;11.358;2023-04-08T11:03:50;4.50;;;3.28;;
68196;SDS011;55019;49.382;11.358;2023-04-08T11:06:16;4.88;;;2.75;;
68196;SDS011;55019;49.382;11.358;2023-04-08T11:08:42;4.22;;;2.78;;
68196;SDS011;55019;49.382;11.358;2023-04-08T11:11:11;4.60;;;2.92;;
68196;SDS011;55019;49.382;11.358;2023-04-08T11:13:41;5.47;;;3.10;;
68196;SDS011;55019;49.382;11.358;2023-04-08T11:16:08;5.13;;;2.88;;
68196;SDS011;55019;49.382;11.358;2023-04-08T11:18:34;5.43;;;2.72;;
68196;SDS011;55019;49.382;11.358;2023-04-08T11:21:01;4.97;;;2.95;;
68196;SDS011;55019;49.382;11.358;2023-04-08T11:23:28;5.05;;;2.97;;
68196;SDS011;55019;49.382;11.358;2023-04-08T11:25:54;4.65;;;3.50;;
68196;SDS011;55019;49.382;11.358;2023-04-08T11:28:21;5.50;;;3.13;;
68196;SDS011;55019;49.382;11.358;2023-04-08T11:30:47;5.55;;;3.00;;
68196;SDS011;55019;49.382;11.358;2023-04-08T11:33:13;5.88;;;2.83;;
68196;SDS011;55019;49.382;11.358;2023-04-08T11:35:40;5.22;;;3.28;;
68196;SDS011;55019;49.382;11.358;2023-04-08T11:38:07;4.22;;;3.08;;
68196;SDS011;55019;49.382;11.358;2023-04-08T11:40:33;4.47;;;2.75;;
68196;SDS011;55019;49.382;11.358;2023-04-08T11:42:58;4.30;;;2.95;;
68196;SDS011;55019;49.382;11.358;2023-04-08T11:45:24;5.00;;;3.03;;
68196;SDS011;55019;49.382;11.358;2023-04-08T11:47:50;4.00;;;2.92;;
68196;SDS011;55019;49.382;11.358;2023-04-08T11:50:22;6.07;;;3.22;;
68196;SDS011;55019;49.382;11.358;2023-04-08T11:52:54;5.80;;;3.60;;
68196;SDS011;55019;49.382;11.358;2023-04-08T11:55:29;4.35;;;2.90;;
68196;SDS011;55019;49.382;11.358;2023-04-08T11:58:00;5.13;;;3.65;;
68196;SDS011;55019;49.382;11.358;2023-04-08T12:00:27;4.65;;;2.75;;
68196;SDS011;55019;49.382;11.358;2023-04-08T12:02:54;4.97;;;3.10;;
68196;SDS011;55019;49.382;11.358;2023-04-08T12:05:19;3.85;;;3.17;;
68196;SDS011;55019;49.382;11.358;2023-04-08T12:07:45;3.97;;;2.50;;
68196;SDS011;55019;49.382;11.358;2023-04-08T12:10:11;4.13;;;3.35;;
68196;SDS011;55019;49.382;11.358;2023-04-08T12:12:38;3.90;;;2.92;;
68196;SDS011;55019;49.382;11.358;2023-04-08T12:15:05;3.97;;;3.00;;
68196;SDS011;55019;49.382;11.358;2023-04-08T12:17:35;4.97;;;2.95;;
68196;SDS011;55019;49.382;11.358;2023-04-08T12:20:03;5.05;;;3.30;;
68196;SDS011;55019;49.382;11.358;2023-04-08T12:24:56;4.15;;;2.80;;
68196;SDS011;55019;49.382;11.358;2023-04-08T12:27:21;4.97;;;2.90;;
68196;SDS011;55019;49.382;11.358;2023-04-08T12:29:47;3.70;;;2.42;;
68196;SDS011;55019;49.382;11.358;2023-04-08T12:32:14;4.10;;;2.72;;
68196;SDS011;55019;49.382;11.358;2023-04-08T12:34:40;3.05;;;2.53;;
68196;SDS011;55019;49.382;11.358;2023-04-08T12:37:06;3.30;;;2.38;;
68196;SDS011;55019;49.382;11.358;2023-04-08T12:39:31;4.20;;;2.75;;
68196;SDS011;55019;49.382;11.358;2023-04-08T12:41:57;4.22;;;2.95;;
68196;SDS011;55019;49.382;11.358;2023-04-08T12:44:23;4.45;;;3.00;;
68196;SDS011;55019;49.382;11.358;2023-04-08T12:46:49;4.72;;;3.60;;
68196;SDS011;55019;49.382;11.358;2023-04-08T12:49:15;4.40;;;3.22;;
68196;SDS011;55019;49.382;11.358;2023-04-08T12:51:41;4.60;;;3.22;;
68196;SDS011;55019;49.382;11.358;2023-04-08T12:54:07;5.20;;;3.40;;
68196;SDS011;55019;49.382;11.358;2023-04-08T12:56:33;4.80;;;3.40;;
68196;SDS011;55019;49.382;11.358;2023-04-08T12:58:58;4.70;;;3.13;;
68196;SDS011;55019;49.382;11.358;2023-04-08T13:01:25;5.93;;;3.90;;
68196;SDS011;55019;49.382;11.358;2023-04-08T13:03:51;3.95;;;2.97;;
68196;SDS011;55019;49.382;11.358;2023-04-08T13:06:17;4.70;;;3.50;;
68196;SDS011;55019;49.382;11.358;2023-04-08T13:08:43;6.28;;;4.10;;
68196;SDS011;55019;49.382;11.358;2023-04-08T13:11:09;5.78;;;4.22;;
68196;SDS011;55019;49.382;11.358;2023-04-08T13:13:34;7.53;;;4.80;;
68196;SDS011;55019;49.382;11.358;2023-04-08T13:16:00;5.55;;;3.90;;
68196;SDS011;55019;49.382;11.358;2023-04-08T13:18:26;6.63;;;3.45;;
68196;SDS011;55019;49.382;11.358;2023-04-08T13:20:52;4.47;;;3.60;;
68196;SDS011;55019;49.382;11.358;2023-04-08T13:23:19;5.97;;;3.97;;
68196;SDS011;55019;49.382;11.358;2023-04-08T13:25:46;4.82;;;3.17;;
68196;SDS011;55019;49.382;11.358;2023-04-08T13:28:12;4.80;;;3.40;;
68196;SDS011;55019;49.382;11.358;2023-04-08T13:30:38;5.95;;;3.45;;
68196;SDS011;55019;49.382;11.358;2023-04-08T13:33:04;6.05;;;3.42;;
68196;SDS011;55019;49.382;11.358;2023-04-08T13:35:29;5.78;;;3.40;;
68196;SDS011;55019;49.382;11.358;2023-04-08T13:37:55;4.57;;;3.45;;
68196;SDS011;55019;49.382;11.358;2023-04-08T13:40:21;4.70;;;3.38;;
68196;SDS011;55019;49.382;11.358;2023-04-08T13:42:46;4.45;;;3.05;;
68196;SDS011;55019;49.382;11.358;2023-04-08T13:45:15;5.20;;;3.22;;
68196;SDS011;55019;49.382;11.358;2023-04-08T13:47:41;4.03;;;2.90;;
68196;SDS011;55019;49.382;11.358;2023-04-08T13:50:06;5.03;;;3.33;;
68196;SDS011;55019;49.382;11.358;2023-04-08T13:52:32;4.68;;;3.17;;
68196;SDS011;55019;49.382;11.358;2023-04-08T13:54:59;4.28;;;3.10;;
68196;SDS011;55019;49.382;11.358;2023-04-08T13:57:25;4.45;;;3.15;;
68196;SDS011;55019;49.382;11.358;2023-04-08T13:59:50;4.50;;;2.88;;
68196;SDS011;55019;49.382;11.358;2023-04-08T14:02:16;5.35;;;3.50;;
68196;SDS011;55019;49.382;11.358;2023-04-08T14:04:42;5.55;;;3.70;;
68196;SDS011;55019;49.382;11.358;2023-04-08T14:07:11;5.90;;;4.05;;
68196;SDS011;55019;49.382;11.358;2023-04-08T14:09:37;5.82;;;3.33;;
68196;SDS011;55019;49.382;11.358;2023-04-08T14:12:03;5.05;;;3.20;;
68196;SDS011;55019;49.382;11.358;2023-04-08T14:14:29;4.15;;;2.80;;
68196;SDS011;55019;49.382;11.358;2023-04-08T14:16:55;5.10;;;3.20;;
68196;SDS011;55019;49.382;11.358;2023-04-08T14:19:21;4.07;;;3.17;;
68196;SDS011;55019;49.382;11.358;2023-04-08T14:21:47;4.00;;;2.90;;
68196;SDS011;55019;49.382;11.358;2023-04-08T14:24:12;4.20;;;2.85;;
68196;SDS011;55019;49.382;11.358;2023-04-08T14:26:38;4.07;;;2.92;;
68196;SDS011;55019;49.382;11.358;2023-04-08T14:29:04;4.28;;;2.65;;
68196;SDS011;55019;49.382;11.358;2023-04-08T14:31:31;4.53;;;2.92;;
68196;SDS011;55019;49.382;11.358;2023-04-08T14:33:57;4.53;;;2.55;;
68196;SDS011;55019;49.382;11.358;2023-04-08T14:36:24;4.45;;;2.60;;
68196;SDS011;55019;49.382;11.358;2023-04-08T14:38:50;4.63;;;2.55;;
68196;SDS011;55019;49.382;11.358;2023-04-08T14:41:16;3.38;;;2.67;;
68196;SDS011;55019;49.382;11.358;2023-04-08T14:43:42;2.47;;;2.13;;
68196;SDS011;55019;49.382;11.358;2023-04-08T14:46:08;3.92;;;2.30;;
68196;SDS011;55019;49.382;11.358;2023-04-08T14:48:33;2.85;;;1.73;;
68196;SDS011;55019;49.382;11.358;2023-04-08T14:50:59;1.52;;;1.40;;
68196;SDS011;55019;49.382;11.358;2023-04-08T14:53:25;2.88;;;1.77;;
68196;SDS011;55019;49.382;11.358;2023-04-08T14:55:51;2.67;;;1.27;;
68196;SDS011;55019;49.382;11.358;2023-04-08T14:58:16;1.65;;;1.45;;
68196;SDS011;55019;49.382;11.358;2023-04-08T15:00:44;1.90;;;1.40;;
68196;SDS011;55019;49.382;11.358;2023-04-08T15:03:12;1.85;;;1.38;;
68196;SDS011;55019;49.382;11.358;2023-04-08T15:05:38;2.95;;;1.90;;
68196;SDS011;55019;49.382;11.358;2023-04-08T15:08:04;2.42;;;1.48;;
68196;SDS011;55019;49.382;11.358;2023-04-08T15:10:30;2.38;;;1.70;;